Time;durP1;ratioP1;P1;durP2;ratioP2;P2;SDS_P1;SDS_P2;PMS_P1;PMS_P2;Temp;Humidity;BMP_temperature;BMP_pressure;BME280_temperature;BME280_humidity;BME280_pressure;Samples;Min_cycle;Max_cycle;Signal;HPM_P1;HPM_P2
2022/11/24 00:02:04;;;;;;;8.05;7.45;;;;;;;;;;4968374;28;20030;-69
2022/11/24 00:04:30;;;;;;;7.72;7.00;;;;;;;;;;4968934;28;20026;-69
2022/11/24 00:06:55;;;;;;;10.07;7.47;;;;;;;;;;4967581;28;20062;-68
2022/11/24 00:09:21;;;;;;;10.60;7.35;;;;;;;;;;4968469;28;20037;-69
2022/11/24 00:11:47;;;;;;;8.77;7.63;;;;;;;;;;4968784;28;20582;-70
2022/11/24 00:14:12;;;;;;;7.70;6.95;;;;;;;;;;4964828;28;20041;-70
2022/11/24 00:16:38;;;;;;;9.40;6.72;;;;;;;;;;4968438;28;20046;-69
2022/11/24 00:19:07;;;;;;;9.00;7.50;;;;;;;;;;4968237;28;20085;-69
2022/11/24 00:21:34;;;;;;;8.32;7.57;;;;;;;;;;4968425;28;20041;-69
2022/11/24 00:24:00;;;;;;;8.35;7.03;;;;;;;;;;4966429;28;20117;-69
2022/11/24 00:26:31;;;;;;;12.75;7.30;;;;;;;;;;4968516;28;20114;-69
2022/11/24 00:28:59;;;;;;;8.68;6.47;;;;;;;;;;4968179;28;20383;-69
2022/11/24 00:31:30;;;;;;;8.97;7.33;;;;;;;;;;4967913;28;20031;-69
2022/11/24 00:33:58;;;;;;;7.88;7.13;;;;;;;;;;4966387;28;20506;-69
2022/11/24 00:36:27;;;;;;;9.32;6.78;;;;;;;;;;4969803;28;20023;-69
2022/11/24 00:38:54;;;;;;;15.60;7.78;;;;;;;;;;4968081;28;20035;-69
2022/11/24 00:41:21;;;;;;;7.50;6.93;;;;;;;;;;4966445;28;20039;-70
2022/11/24 00:43:46;;;;;;;9.82;7.55;;;;;;;;;;4967409;28;20050;-69
2022/11/24 00:46:12;;;;;;;7.32;6.70;;;;;;;;;;4966973;28;20105;-69
2022/11/24 00:48:38;;;;;;;8.98;7.63;;;;;;;;;;4968106;28;20438;-69
2022/11/24 00:51:06;;;;;;;7.38;6.85;;;;;;;;;;4966511;28;20035;-69
2022/11/24 00:53:31;;;;;;;11.07;7.20;;;;;;;;;;4967519;28;20089;-70
2022/11/24 00:55:57;;;;;;;8.38;6.95;;;;;;;;;;4967906;28;20034;-70
2022/11/24 00:58:23;;;;;;;12.57;7.65;;;;;;;;;;4968056;28;20047;-69
2022/11/24 01:00:50;;;;;;;8.35;7.55;;;;;;;;;;4966496;28;20041;-69
2022/11/24 01:03:18;;;;;;;9.50;7.38;;;;;;;;;;4967355;28;20061;-69
2022/11/24 01:05:44;;;;;;;7.53;6.80;;;;;;;;;;4967719;28;20031;-69
2022/11/24 01:08:09;;;;;;;16.38;7.40;;;;;;;;;;4966322;28;20042;-69
2022/11/24 01:10:35;;;;;;;7.57;6.88;;;;;;;;;;4967487;28;20042;-69
2022/11/24 01:13:01;;;;;;;8.05;7.25;;;;;;;;;;4966608;28;20037;-69
2022/11/24 01:15:28;;;;;;;9.73;6.88;;;;;;;;;;4967918;28;20497;-70
2022/11/24 01:17:55;;;;;;;11.40;7.03;;;;;;;;;;4966667;28;20022;-69
2022/11/24 01:20:21;;;;;;;8.90;6.85;;;;;;;;;;4967950;28;20529;-69
2022/11/24 01:22:48;;;;;;;7.93;7.13;;;;;;;;;;4967068;28;20110;-70
2022/11/24 01:25:14;;;;;;;9.18;6.63;;;;;;;;;;4965890;28;20065;-69
2022/11/24 01:27:39;;;;;;;8.57;7.25;;;;;;;;;;4969197;28;20045;-69
2022/11/24 01:30:06;;;;;;;8.02;6.93;;;;;;;;;;4971515;28;20030;-70
2022/11/24 01:32:34;;;;;;;12.52;7.00;;;;;;;;;;4970154;28;20035;-69
2022/11/24 01:35:04;;;;;;;7.47;6.95;;;;;;;;;;4999686;28;20038;-69
2022/11/24 01:37:29;;;;;;;;;;;;;;;;;;4971664;28;20058;-69
2022/11/24 01:39:55;;;;;;;7.07;6.40;;;;;;;;;;4970909;28;19952;-69
2022/11/24 01:42:21;;;;;;;7.55;6.95;;;;;;;;;;4970603;28;20059;-69
2022/11/24 01:44:50;;;;;;;10.18;7.07;;;;;;;;;;4969469;28;20100;-69
2022/11/24 01:47:22;;;;;;;9.02;6.55;;;;;;;;;;4970980;28;20039;-70
2022/11/24 01:49:52;;;;;;;11.63;7.15;;;;;;;;;;4971038;28;20554;-69
2022/11/24 01:52:22;;;;;;;12.07;7.30;;;;;;;;;;4968370;28;20081;-70
2022/11/24 01:54:52;;;;;;;7.93;6.75;;;;;;;;;;4968830;28;20057;-69
2022/11/24 01:57:31;;;;;;;8.10;6.70;;;;;;;;;;4970964;28;20035;-69
2022/11/24 02:00:00;;;;;;;7.72;6.90;;;;;;;;;;4970807;28;20109;-69
2022/11/24 02:02:28;;;;;;;7.18;6.57;;;;;;;;;;4966752;28;20070;-69
2022/11/24 02:04:56;;;;;;;7.45;6.78;;;;;;;;;;4970516;28;20038;-69
2022/11/24 02:07:22;;;;;;;10.38;6.95;;;;;;;;;;4970461;28;20042;-69
2022/11/24 02:09:51;;;;;;;9.25;7.00;;;;;;;;;;4968909;28;20030;-70
2022/11/24 02:12:17;;;;;;;7.97;7.32;;;;;;;;;;4969429;28;20069;-69
2022/11/24 02:14:43;;;;;;;7.15;6.57;;;;;;;;;;4970278;28;20433;-69
2022/11/24 02:17:09;;;;;;;7.25;6.28;;;;;;;;;;4970439;28;20026;-69
2022/11/24 02:19:52;;;;;;;6.03;5.63;;;;;;;;;;4968736;28;20162;-69
2022/11/24 02:22:30;;;;;;;7.88;6.80;;;;;;;;;;4969479;28;20027;-69
2022/11/24 02:25:29;;;;;;;7.07;6.38;;;;;;;;;;4970282;28;20129;-70
2022/11/24 02:27:57;;;;;;;8.10;6.75;;;;;;;;;;4968362;28;20058;-69
2022/11/24 02:30:23;;;;;;;7.50;6.75;;;;;;;;;;4970397;28;20046;-69
2022/11/24 02:32:49;;;;;;;10.25;6.90;;;;;;;;;;4969622;28;20064;-69
2022/11/24 02:35:16;;;;;;;10.73;6.55;;;;;;;;;;4970349;28;20499;-69
2022/11/24 02:37:41;;;;;;;8.85;6.35;;;;;;;;;;4968284;28;20145;-69
2022/11/24 02:40:07;;;;;;;7.13;6.43;;;;;;;;;;4969180;28;20686;-69
2022/11/24 02:42:37;;;;;;;12.25;7.90;;;;;;;;;;4969697;28;20085;-69
2022/11/24 02:45:03;;;;;;;7.70;6.97;;;;;;;;;;4968206;28;20126;-69
2022/11/24 02:47:29;;;;;;;11.18;6.85;;;;;;;;;;4969509;28;20375;-69
2022/11/24 02:49:54;;;;;;;7.85;7.07;;;;;;;;;;4969883;28;20050;-69
2022/11/24 02:52:20;;;;;;;7.05;6.35;;;;;;;;;;4968938;28;20038;-69
2022/11/24 02:54:46;;;;;;;7.38;6.78;;;;;;;;;;4967644;28;21241;-69
2022/11/24 02:57:11;;;;;;;10.27;7.00;;;;;;;;;;4969703;28;20027;-69
2022/11/24 02:59:37;;;;;;;7.45;6.80;;;;;;;;;;4970003;28;20544;-69
2022/11/24 03:02:02;;;;;;;9.88;6.90;;;;;;;;;;4967930;28;20035;-69
2022/11/24 03:04:28;;;;;;;8.98;6.93;;;;;;;;;;4969364;28;20134;-69
2022/11/24 03:06:53;;;;;;;9.27;7.55;;;;;;;;;;4969703;28;20037;-69
2022/11/24 03:09:19;;;;;;;10.65;7.28;;;;;;;;;;4969760;28;20098;-69
2022/11/24 03:11:45;;;;;;;14.45;7.45;;;;;;;;;;4968102;28;20073;-69
2022/11/24 03:14:10;;;;;;;14.18;7.57;;;;;;;;;;4968985;28;20506;-69
2022/11/24 03:16:36;;;;;;;7.80;7.00;;;;;;;;;;4969794;28;20029;-69
2022/11/24 03:19:02;;;;;;;7.35;6.78;;;;;;;;;;4969614;28;20030;-69
2022/11/24 03:21:28;;;;;;;8.52;7.65;;;;;;;;;;4967886;28;20030;-69
2022/11/24 03:23:54;;;;;;;7.60;6.90;;;;;;;;;;4968642;28;20371;-69
2022/11/24 03:26:21;;;;;;;9.13;7.18;;;;;;;;;;4969015;28;20039;-69
2022/11/24 03:28:47;;;;;;;11.13;7.20;;;;;;;;;;4967733;28;20034;-69
2022/11/24 03:31:13;;;;;;;7.20;6.60;;;;;;;;;;4969311;28;20038;-69
2022/11/24 03:33:38;;;;;;;12.18;6.72;;;;;;;;;;4969115;28;20039;-69
2022/11/24 03:36:06;;;;;;;12.70;7.38;;;;;;;;;;4969177;28;20031;-69
2022/11/24 03:38:31;;;;;;;9.45;7.22;;;;;;;;;;4964205;28;20042;-69
2022/11/24 03:40:57;;;;;;;8.68;7.03;;;;;;;;;;4968993;28;20030;-69
2022/11/24 03:43:22;;;;;;;7.68;6.97;;;;;;;;;;4969002;28;20045;-69
2022/11/24 03:45:48;;;;;;;9.40;6.97;;;;;;;;;;4966786;28;20066;-69
2022/11/24 03:48:16;;;;;;;8.57;7.30;;;;;;;;;;4956564;28;20606;-69
2022/11/24 03:50:42;;;;;;;11.18;6.90;;;;;;;;;;4968361;28;20042;-69
2022/11/24 03:53:08;;;;;;;11.15;6.90;;;;;;;;;;4968086;28;20146;-69
2022/11/24 03:55:34;;;;;;;6.68;6.28;;;;;;;;;;4969225;28;20106;-69
2022/11/24 03:58:00;;;;;;;7.50;6.80;;;;;;;;;;4967244;28;20047;-69
2022/11/24 04:00:26;;;;;;;7.43;6.82;;;;;;;;;;4968963;28;20039;-69
2022/11/24 04:02:52;;;;;;;13.27;8.55;;;;;;;;;;4960911;28;20519;-69
2022/11/24 04:05:18;;;;;;;7.80;7.10;;;;;;;;;;4958964;28;20034;-69
2022/11/24 04:07:43;;;;;;;8.30;6.75;;;;;;;;;;4963809;28;20035;-69
2022/11/24 04:10:09;;;;;;;7.63;6.70;;;;;;;;;;4961134;28;20038;-69
2022/11/24 04:12:43;;;;;;;7.40;6.90;;;;;;;;;;4963442;28;20049;-69
2022/11/24 04:15:11;;;;;;;7.07;6.55;;;;;;;;;;4963009;28;20038;-69
2022/11/24 04:17:37;;;;;;;6.65;6.20;;;;;;;;;;4968567;28;20061;-69
2022/11/24 04:20:03;;;;;;;7.05;6.55;;;;;;;;;;4968536;28;20118;-69
2022/11/24 04:22:28;;;;;;;7.85;7.13;;;;;;;;;;4968409;28;20031;-69
2022/11/24 04:24:54;;;;;;;6.97;6.57;;;;;;;;;;4963972;28;20872;-69
2022/11/24 04:27:19;;;;;;;8.35;7.50;;;;;;;;;;4959469;28;20042;-69
2022/11/24 04:29:45;;;;;;;8.15;7.32;;;;;;;;;;4966113;28;20379;-69
2022/11/24 04:32:10;;;;;;;7.55;6.78;;;;;;;;;;4961908;28;20086;-69
2022/11/24 04:34:36;;;;;;;13.32;7.40;;;;;;;;;;4961194;28;20046;-69
2022/11/24 04:37:02;;;;;;;8.98;7.10;;;;;;;;;;4961823;28;20031;-69
2022/11/24 04:39:27;;;;;;;7.25;6.72;;;;;;;;;;4962454;28;20906;-69
2022/11/24 04:41:53;;;;;;;10.52;6.88;;;;;;;;;;4959365;28;20034;-69
2022/11/24 04:44:19;;;;;;;7.80;6.40;;;;;;;;;;4962233;28;20035;-69
2022/11/24 04:46:45;;;;;;;6.97;6.40;;;;;;;;;;4967178;28;20039;-69
2022/11/24 04:49:10;;;;;;;9.27;6.20;;;;;;;;;;4966076;28;20076;-69
2022/11/24 04:51:37;;;;;;;7.65;7.05;;;;;;;;;;4968144;28;20029;-69
2022/11/24 04:54:04;;;;;;;7.35;6.15;;;;;;;;;;4967813;28;20438;-69
2022/11/24 04:56:29;;;;;;;7.40;6.45;;;;;;;;;;4968322;28;20035;-69
2022/11/24 04:58:55;;;;;;;7.75;7.03;;;;;;;;;;4966995;28;20066;-69
2022/11/24 05:01:20;;;;;;;7.38;6.68;;;;;;;;;;4966904;28;20035;-69
2022/11/24 05:03:46;;;;;;;12.38;7.28;;;;;;;;;;4965924;28;20247;-69
2022/11/24 05:06:11;;;;;;;7.82;6.20;;;;;;;;;;4963719;28;20073;-69
2022/11/24 05:08:37;;;;;;;7.82;6.50;;;;;;;;;;4966358;28;20061;-69
2022/11/24 05:11:04;;;;;;;10.10;8.65;;;;;;;;;;4965285;28;20041;-69
2022/11/24 05:13:30;;;;;;;31.85;25.10;;;;;;;;;;4967005;28;20077;-69
2022/11/24 05:15:56;;;;;;;19.25;11.70;;;;;;;;;;4971428;28;20042;-69
2022/11/24 05:18:21;;;;;;;12.10;10.82;;;;;;;;;;4971460;28;20066;-69
2022/11/24 05:20:48;;;;;;;9.43;7.28;;;;;;;;;;4969734;28;20039;-69
2022/11/24 05:23:14;;;;;;;6.70;6.03;;;;;;;;;;4970784;28;20051;-69
2022/11/24 05:25:40;;;;;;;12.75;7.40;;;;;;;;;;4972034;28;20046;-69
2022/11/24 05:28:08;;;;;;;10.50;6.30;;;;;;;;;;4968379;28;20735;-69
2022/11/24 05:30:39;;;;;;;7.43;6.70;;;;;;;;;;4963964;28;20038;-69
2022/11/24 05:33:17;;;;;;;8.52;6.65;;;;;;;;;;4968195;28;20046;-69
2022/11/24 05:35:47;;;;;;;7.28;6.50;;;;;;;;;;4965403;28;20126;-69
2022/11/24 05:38:14;;;;;;;7.95;7.05;;;;;;;;;;4968454;28;20027;-69
2022/11/24 05:40:40;;;;;;;9.18;6.72;;;;;;;;;;4963022;28;20039;-69
2022/11/24 05:43:10;;;;;;;7.07;6.40;;;;;;;;;;4964915;28;20030;-69
2022/11/24 05:45:36;;;;;;;7.55;6.55;;;;;;;;;;4966385;28;20045;-69
2022/11/24 05:48:07;;;;;;;7.20;6.70;;;;;;;;;;4966061;28;20035;-69
2022/11/24 05:50:33;;;;;;;8.25;6.72;;;;;;;;;;4965578;28;20113;-69
2022/11/24 05:53:03;;;;;;;14.10;7.18;;;;;;;;;;4968445;28;20043;-69
2022/11/24 05:55:29;;;;;;;10.40;7.00;;;;;;;;;;4971162;28;20117;-69
2022/11/24 05:57:59;;;;;;;7.50;6.80;;;;;;;;;;4967715;28;20094;-69
2022/11/24 06:00:25;;;;;;;7.50;6.80;;;;;;;;;;4970428;28;20026;-69
2022/11/24 06:02:50;;;;;;;11.57;6.63;;;;;;;;;;4966400;28;20043;-69
2022/11/24 06:05:16;;;;;;;8.98;7.40;;;;;;;;;;4965075;28;20528;-69
2022/11/24 06:07:42;;;;;;;7.65;6.60;;;;;;;;;;4964632;28;20046;-69
2022/11/24 06:10:08;;;;;;;7.68;6.95;;;;;;;;;;4963219;28;20034;-69
2022/11/24 06:12:34;;;;;;;8.73;6.50;;;;;;;;;;4961873;28;20454;-69
2022/11/24 06:15:00;;;;;;;7.13;6.68;;;;;;;;;;4964732;28;20023;-69
2022/11/24 06:17:26;;;;;;;7.13;6.53;;;;;;;;;;4964953;28;20062;-69
2022/11/24 06:19:52;;;;;;;8.35;7.43;;;;;;;;;;4962882;28;20498;-69
2022/11/24 06:22:18;;;;;;;11.32;7.40;;;;;;;;;;4969081;28;20042;-69
2022/11/24 06:24:45;;;;;;;11.52;6.75;;;;;;;;;;4969769;28;20039;-69
2022/11/24 06:27:11;;;;;;;10.73;7.10;;;;;;;;;;4969597;28;20152;-70
2022/11/24 06:29:37;;;;;;;6.78;6.30;;;;;;;;;;4965192;28;20117;-71
2022/11/24 06:32:04;;;;;;;6.85;6.35;;;;;;;;;;4969382;28;20042;-70
2022/11/24 06:34:29;;;;;;;10.70;6.80;;;;;;;;;;4969052;28;20031;-71
2022/11/24 06:36:57;;;;;;;8.05;6.63;;;;;;;;;;4968335;28;20030;-71
2022/11/24 06:39:23;;;;;;;7.88;6.03;;;;;;;;;;4964761;28;20042;-71
2022/11/24 06:41:49;;;;;;;8.77;6.60;;;;;;;;;;4964493;28;20034;-71
2022/11/24 06:44:14;;;;;;;8.98;7.70;;;;;;;;;;4969731;28;20070;-71
2022/11/24 06:46:40;;;;;;;6.78;6.05;;;;;;;;;;4968063;28;20074;-71
2022/11/24 06:49:06;;;;;;;9.30;6.50;;;;;;;;;;4968181;28;20129;-71
2022/11/24 06:51:31;;;;;;;27.48;14.10;;;;;;;;;;4964782;28;20081;-71
2022/11/24 06:53:57;;;;;;;30.52;15.40;;;;;;;;;;4966568;28;20034;-71
2022/11/24 06:56:23;;;;;;;29.40;15.40;;;;;;;;;;4967730;28;20038;-71
2022/11/24 06:58:50;;;;;;;14.02;10.60;;;;;;;;;;4970522;28;20319;-71
2022/11/24 07:01:17;;;;;;;11.88;7.72;;;;;;;;;;4970032;28;20027;-71
2022/11/24 07:03:43;;;;;;;16.35;8.52;;;;;;;;;;4965697;28;20050;-71
2022/11/24 07:06:09;;;;;;;16.67;10.27;;;;;;;;;;4965528;28;20042;-71
2022/11/24 07:08:34;;;;;;;13.15;9.20;;;;;;;;;;4966035;28;20034;-71
2022/11/24 07:11:05;;;;;;;21.42;10.27;;;;;;;;;;4963974;28;20041;-71
2022/11/24 07:13:30;;;;;;;21.33;10.38;;;;;;;;;;4965444;28;20122;-71
2022/11/24 07:15:56;;;;;;;13.63;8.35;;;;;;;;;;4966902;28;20228;-71
2022/11/24 07:18:21;;;;;;;16.38;7.78;;;;;;;;;;4966997;28;20046;-71
2022/11/24 07:20:47;;;;;;;12.23;7.40;;;;;;;;;;4963673;28;20042;-71
2022/11/24 07:23:12;;;;;;;13.38;7.50;;;;;;;;;;4968413;28;20101;-71
2022/11/24 07:25:38;;;;;;;13.05;7.82;;;;;;;;;;4969266;28;20171;-71
2022/11/24 07:28:04;;;;;;;13.43;7.65;;;;;;;;;;4967836;28;20068;-71
2022/11/24 07:30:30;;;;;;;14.43;7.65;;;;;;;;;;4969463;28;20035;-71
2022/11/24 07:33:00;;;;;;;12.60;7.55;;;;;;;;;;4969128;28;20026;-71
2022/11/24 07:35:26;;;;;;;9.57;7.20;;;;;;;;;;4963062;28;20042;-71
2022/11/24 07:37:57;;;;;;;11.02;7.80;;;;;;;;;;4964493;28;20042;-70
2022/11/24 07:40:23;;;;;;;12.50;7.97;;;;;;;;;;4964368;28;20045;-70
2022/11/24 07:42:49;;;;;;;14.07;8.00;;;;;;;;;;4963689;28;20525;-70
2022/11/24 07:45:15;;;;;;;10.45;8.30;;;;;;;;;;4961331;28;20157;-71
2022/11/24 07:47:41;;;;;;;16.13;9.07;;;;;;;;;;4964687;28;20045;-70
2022/11/24 07:50:08;;;;;;;15.38;8.02;;;;;;;;;;4968948;28;20413;-71
2022/11/24 07:52:34;;;;;;;16.52;7.78;;;;;;;;;;4966624;28;20039;-70
2022/11/24 07:55:00;;;;;;;13.82;8.00;;;;;;;;;;4983483;28;20057;-70
2022/11/24 07:57:27;;;;;;;8.07;7.18;;;;;;;;;;4969093;28;20490;-70
2022/11/24 07:59:54;;;;;;;17.73;7.78;;;;;;;;;;4965951;28;20042;-70
2022/11/24 08:02:20;;;;;;;13.77;7.45;;;;;;;;;;4962433;28;20051;-70
2022/11/24 08:04:45;;;;;;;9.38;7.70;;;;;;;;;;4963921;28;20730;-70
2022/11/24 08:07:11;;;;;;;19.75;8.80;;;;;;;;;;4963392;28;20528;-70
2022/11/24 08:09:37;;;;;;;12.88;8.27;;;;;;;;;;4965080;28;20237;-70
2022/11/24 08:12:02;;;;;;;13.98;8.45;;;;;;;;;;4966107;28;20506;-70
2022/11/24 08:14:28;;;;;;;11.82;8.73;;;;;;;;;;4968936;28;20034;-70
2022/11/24 08:16:53;;;;;;;11.32;8.10;;;;;;;;;;4968295;28;20038;-70
2022/11/24 08:19:20;;;;;;;12.88;8.02;;;;;;;;;;4966746;28;20126;-70
2022/11/24 08:21:46;;;;;;;15.43;8.45;;;;;;;;;;4968039;28;20097;-71
2022/11/24 08:24:14;;;;;;;15.38;8.32;;;;;;;;;;4968538;28;20043;-71
2022/11/24 08:26:40;;;;;;;10.60;7.85;;;;;;;;;;4968158;28;20062;-71
2022/11/24 08:29:06;;;;;;;21.05;8.38;;;;;;;;;;4966402;28;20077;-71
2022/11/24 08:31:34;;;;;;;17.70;12.48;;;;;;;;;;4968444;28;20410;-71
2022/11/24 08:34:01;;;;;;;17.38;10.15;;;;;;;;;;4966367;28;20163;-71
2022/11/24 08:36:26;;;;;;;9.45;7.60;;;;;;;;;;4967532;28;20065;-71
2022/11/24 08:38:57;;;;;;;15.18;8.65;;;;;;;;;;4966588;28;20070;-71
2022/11/24 08:41:23;;;;;;;16.80;8.65;;;;;;;;;;4968146;28;20038;-71
2022/11/24 08:43:49;;;;;;;13.60;8.45;;;;;;;;;;4967442;28;21170;-71
2022/11/24 08:46:16;;;;;;;17.65;10.10;;;;;;;;;;4967385;28;20035;-72
2022/11/24 08:48:43;;;;;;;19.10;9.82;;;;;;;;;;4965183;28;20050;-71
2022/11/24 08:51:11;;;;;;;21.23;11.20;;;;;;;;;;4967529;28;20449;-71
2022/11/24 08:53:38;;;;;;;14.30;8.80;;;;;;;;;;4963621;28;20101;-71
2022/11/24 08:56:04;;;;;;;11.13;8.32;;;;;;;;;;4967938;28;20050;-71
2022/11/24 08:58:31;;;;;;;12.32;7.80;;;;;;;;;;4966722;28;20382;-72
2022/11/24 09:01:10;;;;;;;13.50;7.38;;;;;;;;;;4965934;28;20109;-71
2022/11/24 09:03:37;;;;;;;13.88;7.78;;;;;;;;;;4956677;28;20854;-71
2022/11/24 09:06:03;;;;;;;9.57;7.90;;;;;;;;;;4963887;28;20540;-71
2022/11/24 09:08:30;;;;;;;8.23;7.43;;;;;;;;;;4966258;28;20122;-71
2022/11/24 09:11:06;;;;;;;9.00;7.57;;;;;;;;;;4965712;28;20340;-71
2022/11/24 09:13:33;;;;;;;10.20;8.05;;;;;;;;;;4960693;28;20031;-71
2022/11/24 09:16:06;;;;;;;13.82;7.53;;;;;;;;;;4964451;28;20041;-71
2022/11/24 09:18:33;;;;;;;8.55;7.28;;;;;;;;;;4962657;28;20035;-71
2022/11/24 09:21:12;;;;;;;15.60;7.78;;;;;;;;;;4964894;28;20043;-71
2022/11/24 09:23:39;;;;;;;8.35;7.60;;;;;;;;;;4964820;28;20031;-71
2022/11/24 09:26:11;;;;;;;9.00;7.70;;;;;;;;;;4965414;28;20034;-71
2022/11/24 09:28:36;;;;;;;8.43;7.57;;;;;;;;;;4962434;28;20092;-71
2022/11/24 09:31:07;;;;;;;8.70;7.80;;;;;;;;;;4964670;28;20034;-71
2022/11/24 09:33:34;;;;;;;9.15;7.80;;;;;;;;;;4965294;28;20085;-71
2022/11/24 09:36:00;;;;;;;11.18;7.50;;;;;;;;;;4965516;28;20035;-71
2022/11/24 09:38:26;;;;;;;14.65;7.75;;;;;;;;;;4963626;28;20451;-71
2022/11/24 09:40:53;;;;;;;9.00;7.57;;;;;;;;;;4964997;28;20504;-71
2022/11/24 09:43:31;;;;;;;8.43;7.60;;;;;;;;;;4965272;28;20098;-71
2022/11/24 09:46:31;;;;;;;8.07;7.38;;;;;;;;;;4965393;28;20486;-71
2022/11/24 09:48:57;;;;;;;9.10;7.78;;;;;;;;;;4964978;28;20054;-71
2022/11/24 09:51:30;;;;;;;10.13;7.25;;;;;;;;;;4969402;28;20037;-71
2022/11/24 09:54:02;;;;;;;8.80;7.50;;;;;;;;;;4968563;28;20046;-71
2022/11/24 09:56:32;;;;;;;7.80;7.20;;;;;;;;;;4963473;28;20090;-71
2022/11/24 09:59:06;;;;;;;8.15;7.28;;;;;;;;;;4968719;28;20058;-71
2022/11/24 10:01:35;;;;;;;8.27;7.38;;;;;;;;;;4965510;28;20050;-71
2022/11/24 10:04:03;;;;;;;10.68;7.55;;;;;;;;;;4965726;28;20421;-71
2022/11/24 10:06:37;;;;;;;10.57;6.88;;;;;;;;;;4965717;28;20066;-71
2022/11/24 10:09:18;;;;;;;9.95;7.78;;;;;;;;;;4967114;28;20038;-71
2022/11/24 10:11:57;;;;;;;9.48;7.40;;;;;;;;;;4968600;28;20047;-71
2022/11/24 10:14:41;;;;;;;7.57;6.97;;;;;;;;;;4966329;28;20038;-71
2022/11/24 10:17:31;;;;;;;7.63;7.03;;;;;;;;;;4968586;28;20450;-71
2022/11/24 10:20:15;;;;;;;8.13;7.35;;;;;;;;;;4966857;28;20038;-71
2022/11/24 10:22:54;;;;;;;9.88;6.68;;;;;;;;;;4965962;28;20544;-71
2022/11/24 10:25:24;;;;;;;7.13;6.72;;;;;;;;;;4968504;28;20050;-71
2022/11/24 10:28:01;;;;;;;8.93;7.15;;;;;;;;;;4968207;28;20278;-71
2022/11/24 10:30:27;;;;;;;8.40;7.70;;;;;;;;;;4965398;28;20093;-71
2022/11/24 10:33:00;;;;;;;9.05;8.15;;;;;;;;;;4967216;28;20803;-71
2022/11/24 10:35:52;;;;;;;7.70;7.20;;;;;;;;;;4969074;28;20039;-71
2022/11/24 10:38:50;;;;;;;7.20;6.80;;;;;;;;;;4964374;28;20096;-71
2022/11/24 10:41:22;;;;;;;7.75;7.25;;;;;;;;;;4968382;28;20030;-71
2022/11/24 10:43:49;;;;;;;8.30;7.75;;;;;;;;;;4967280;28;20042;-71
2022/11/24 10:46:27;;;;;;;7.57;7.15;;;;;;;;;;4966116;28;20519;-71
2022/11/24 10:49:00;;;;;;;7.65;7.20;;;;;;;;;;4967164;28;20070;-71
2022/11/24 10:51:29;;;;;;;7.60;7.00;;;;;;;;;;4966823;28;20035;-71
2022/11/24 10:54:01;;;;;;;7.93;7.22;;;;;;;;;;4966071;28;20113;-71
2022/11/24 10:56:37;;;;;;;7.60;7.05;;;;;;;;;;4968407;28;20027;-71
2022/11/24 10:59:22;;;;;;;7.30;6.90;;;;;;;;;;4965760;28;20038;-71
2022/11/24 11:01:49;;;;;;;6.68;6.28;;;;;;;;;;4965668;28;20085;-71
2022/11/24 11:04:20;;;;;;;6.82;6.43;;;;;;;;;;4967211;28;20074;-71
2022/11/24 11:06:46;;;;;;;6.75;6.45;;;;;;;;;;4967401;28;20043;-71
2022/11/24 11:09:21;;;;;;;6.43;6.13;;;;;;;;;;4967210;28;20398;-71
2022/11/24 11:11:48;;;;;;;7.00;6.50;;;;;;;;;;4964724;28;20467;-71
2022/11/24 11:14:32;;;;;;;7.38;6.75;;;;;;;;;;4967135;28;20446;-71
2022/11/24 11:16:58;;;;;;;7.38;6.65;;;;;;;;;;4967273;28;20479;-71
2022/11/24 11:19:46;;;;;;;7.55;6.95;;;;;;;;;;4965664;28;20038;-71
2022/11/24 11:22:11;;;;;;;7.38;6.88;;;;;;;;;;4965683;28;20561;-71
2022/11/24 11:24:39;;;;;;;7.28;6.78;;;;;;;;;;4967805;28;20035;-71
2022/11/24 11:27:25;;;;;;;7.72;7.20;;;;;;;;;;4966654;28;20475;-71
2022/11/24 11:29:51;;;;;;;7.93;7.43;;;;;;;;;;4966434;28;20097;-71
2022/11/24 11:32:20;;;;;;;8.13;7.43;;;;;;;;;;4966989;28;20026;-70
2022/11/24 11:34:47;;;;;;;7.97;7.28;;;;;;;;;;4967045;28;20399;-71
2022/11/24 11:37:14;;;;;;;8.60;7.95;;;;;;;;;;4965063;28;20454;-68
2022/11/24 11:39:44;;;;;;;7.40;7.00;;;;;;;;;;4966499;28;20050;-68
2022/11/24 11:42:13;;;;;;;8.25;7.75;;;;;;;;;;4966424;28;20141;-70
2022/11/24 11:44:58;;;;;;;7.60;7.18;;;;;;;;;;4965190;28;20470;-68
2022/11/24 11:47:30;;;;;;;7.68;7.20;;;;;;;;;;4962888;28;20418;-71
2022/11/24 11:49:56;;;;;;;8.50;7.80;;;;;;;;;;4965887;28;20038;-71
2022/11/24 11:52:43;;;;;;;8.85;8.15;;;;;;;;;;4966484;28;20037;-71
2022/11/24 11:55:47;;;;;;;7.85;7.35;;;;;;;;;;4964918;28;20038;-71
2022/11/24 11:58:22;;;;;;;8.05;7.45;;;;;;;;;;4925039;29;20130;-71
2022/11/24 12:01:24;;;;;;;9.27;8.00;;;;;;;;;;4925387;29;20079;-71
2022/11/24 12:04:08;;;;;;;8.73;7.93;;;;;;;;;;4923881;29;20130;-71
2022/11/24 12:07:04;;;;;;;8.65;7.78;;;;;;;;;;4923522;29;20043;-71
2022/11/24 12:09:48;;;;;;;8.30;7.60;;;;;;;;;;4924470;29;20061;-71
2022/11/24 12:12:34;;;;;;;9.23;8.57;;;;;;;;;;4922257;29;20042;-71
2022/11/24 12:15:25;;;;;;;8.25;7.75;;;;;;;;;;4924672;29;20059;-71
2022/11/24 12:17:53;;;;;;;8.93;8.25;;;;;;;;;;4925190;29;20509;-71
2022/11/24 12:20:56;;;;;;;9.40;8.70;;;;;;;;;;4925218;29;20055;-71
2022/11/24 12:23:52;;;;;;;8.77;8.18;;;;;;;;;;4924675;29;20362;-71
2022/11/24 12:26:42;;;;;;;8.35;7.78;;;;;;;;;;4924830;29;20039;-71
2022/11/24 12:29:39;;;;;;;8.57;7.80;;;;;;;;;;4922223;29;20062;-71
2022/11/24 12:32:42;;;;;;;8.57;7.70;;;;;;;;;;4924356;29;20047;-71
2022/11/24 12:35:27;;;;;;;8.77;8.07;;;;;;;;;;4965833;28;20042;-71
2022/11/24 12:38:17;;;;;;;7.97;7.47;;;;;;;;;;4965081;28;20042;-71
2022/11/24 12:41:16;;;;;;;8.13;7.53;;;;;;;;;;4965917;28;20049;-72
2022/11/24 12:43:50;;;;;;;8.73;8.13;;;;;;;;;;4967068;28;20497;-72
2022/11/24 12:46:35;;;;;;;8.48;7.88;;;;;;;;;;4966010;28;20391;-71
2022/11/24 12:49:18;;;;;;;9.15;8.43;;;;;;;;;;4965872;28;20082;-71
2022/11/24 12:51:48;;;;;;;10.70;8.07;;;;;;;;;;4966762;28;20126;-72
2022/11/24 12:54:20;;;;;;;8.90;8.10;;;;;;;;;;4965370;28;20104;-71
2022/11/24 12:56:59;;;;;;;9.30;8.40;;;;;;;;;;4964449;28;20085;-71
2022/11/24 13:00:13;;;;;;;8.40;7.75;;;;;;;;;;4966565;28;20035;-72
2022/11/24 13:03:16;;;;;;;7.95;7.28;;;;;;;;;;4982450;28;20523;-72
2022/11/24 13:06:01;;;;;;;7.80;7.30;;;;;;;;;;4979136;28;20214;-71
2022/11/24 13:08:27;;;;;;;8.48;7.75;;;;;;;;;;4978456;28;20038;-72
2022/11/24 13:10:53;;;;;;;8.93;8.02;;;;;;;;;;4982410;28;20058;-72
2022/11/24 13:13:22;;;;;;;8.48;7.72;;;;;;;;;;4982475;28;20117;-72
2022/11/24 13:15:53;;;;;;;8.18;7.10;;;;;;;;;;4980246;28;20046;-71
2022/11/24 13:18:45;;;;;;;10.60;8.13;;;;;;;;;;4982621;28;20065;-72
2022/11/24 13:21:34;;;;;;;10.13;7.72;;;;;;;;;;4980529;28;20092;-72
2022/11/24 13:24:01;;;;;;;;;;;;;;;;;;4982958;28;20461;-69
2022/11/24 13:26:48;;;;;;;8.60;7.78;;;;;;;;;;4986548;28;19913;-72
2022/11/24 13:29:23;;;;;;;9.70;7.30;;;;;;;;;;4986497;28;20042;-72
2022/11/24 13:31:48;;;;;;;12.68;8.00;;;;;;;;;;4983962;28;20142;-69
2022/11/24 13:34:41;;;;;;;11.32;7.07;;;;;;;;;;4985309;28;20135;-69
2022/11/24 13:37:22;;;;;;;8.30;7.55;;;;;;;;;;4973473;28;20226;-72
2022/11/24 13:39:59;;;;;;;8.02;7.35;;;;;;;;;;4969704;28;20039;-72
2022/11/24 13:42:26;;;;;;;9.85;7.35;;;;;;;;;;4965539;28;20486;-72
2022/11/24 13:44:53;;;;;;;8.55;7.40;;;;;;;;;;4969425;28;20097;-72
2022/11/24 13:47:32;;;;;;;8.05;7.22;;;;;;;;;;4969193;28;20505;-72
2022/11/24 13:49:58;;;;;;;8.38;7.63;;;;;;;;;;4967075;28;20126;-72
2022/11/24 13:52:43;;;;;;;7.85;7.18;;;;;;;;;;4969057;28;20121;-72
2022/11/24 13:55:11;;;;;;;7.78;7.20;;;;;;;;;;4969470;28;20616;-72
2022/11/24 13:57:42;;;;;;;9.52;7.72;;;;;;;;;;4969403;28;20060;-72
2022/11/24 14:00:32;;;;;;;10.75;7.38;;;;;;;;;;4967554;28;20034;-70
2022/11/24 14:03:05;;;;;;;8.43;7.63;;;;;;;;;;4968261;28;20049;-70
2022/11/24 14:05:38;;;;;;;9.82;8.00;;;;;;;;;;4965572;28;20038;-70
2022/11/24 14:08:06;;;;;;;7.93;7.32;;;;;;;;;;4968201;28;20407;-70
2022/11/24 14:10:35;;;;;;;10.02;7.40;;;;;;;;;;4967946;28;20465;-70
2022/11/24 14:13:22;;;;;;;8.63;7.82;;;;;;;;;;4967515;28;20498;-70
2022/11/24 14:16:05;;;;;;;9.57;7.93;;;;;;;;;;4968626;28;20231;-70
2022/11/24 14:18:32;;;;;;;8.40;7.80;;;;;;;;;;4964191;28;20495;-70
2022/11/24 14:21:13;;;;;;;9.23;8.02;;;;;;;;;;4968119;28;20026;-70
2022/11/24 14:23:42;;;;;;;8.90;8.10;;;;;;;;;;4968293;28;20576;-70
2022/11/24 14:26:20;;;;;;;8.98;8.10;;;;;;;;;;4966181;28;20045;-70
2022/11/24 14:28:46;;;;;;;8.55;7.75;;;;;;;;;;4968385;28;20046;-70
2022/11/24 14:31:25;;;;;;;8.60;7.72;;;;;;;;;;4965853;28;20548;-70
2022/11/24 14:34:08;;;;;;;8.67;7.90;;;;;;;;;;4968288;28;20487;-70
2022/11/24 14:36:33;;;;;;;8.80;8.00;;;;;;;;;;4965324;28;20302;-70
2022/11/24 14:38:59;;;;;;;16.63;8.07;;;;;;;;;;4968295;28;20034;-70
2022/11/24 14:41:27;;;;;;;9.05;7.35;;;;;;;;;;4968279;28;20034;-70
2022/11/24 14:44:07;;;;;;;9.10;7.93;;;;;;;;;;4966605;28;20054;-70
2022/11/24 14:46:34;;;;;;;8.30;7.57;;;;;;;;;;4967130;28;20047;-70
2022/11/24 14:49:00;;;;;;;8.98;7.82;;;;;;;;;;4968131;28;20564;-70
2022/11/24 14:51:34;;;;;;;8.98;8.07;;;;;;;;;;4968747;28;20077;-70
2022/11/24 14:54:20;;;;;;;9.82;7.68;;;;;;;;;;4964745;28;20500;-70
2022/11/24 14:57:00;;;;;;;8.73;8.10;;;;;;;;;;4966546;28;20030;-70
2022/11/24 14:59:28;;;;;;;9.23;8.45;;;;;;;;;;4967721;28;20114;-70